sensor_id;sensor_type;location;lat;lon;timestamp;pressure;altitude;pressure_sealevel;temperature;humidity
63019;BME280;49105;46.046;10.760;2022-07-21T00:01:29;95995.00;;;23.19;44.95
63019;BME280;49105;46.046;10.760;2022-07-21T00:03:55;96002.03;;;23.08;45.36
63019;BME280;49105;46.046;10.760;2022-07-21T00:06:20;96000.47;;;23.07;45.43
63019;BME280;49105;46.046;10.760;2022-07-21T00:08:46;96001.69;;;23.10;45.70
63019;BME280;49105;46.046;10.760;2022-07-21T00:11:11;96006.25;;;22.93;45.93
63019;BME280;49105;46.046;10.760;2022-07-21T00:13:37;96000.72;;;23.02;45.78
63019;BME280;49105;46.046;10.760;2022-07-21T00:16:03;95995.06;;;23.07;45.79
63019;BME280;49105;46.046;10.760;2022-07-21T00:18:28;95994.63;;;23.05;45.63
63019;BME280;49105;46.046;10.760;2022-07-21T00:20:55;95997.22;;;23.01;45.74
63019;BME280;49105;46.046;10.760;2022-07-21T00:23:22;95999.94;;;23.01;45.76
63019;BME280;49105;46.046;10.760;2022-07-21T00:25:48;96001.75;;;22.97;45.65
63019;BME280;49105;46.046;10.760;2022-07-21T00:28:13;96002.97;;;22.88;45.90
63019;BME280;49105;46.046;10.760;2022-07-21T00:30:39;96002.56;;;22.73;46.42
63019;BME280;49105;46.046;10.760;2022-07-21T00:33:04;96010.22;;;22.71;46.45
63019;BME280;49105;46.046;10.760;2022-07-21T00:35:30;96007.53;;;22.71;46.62
63019;BME280;49105;46.046;10.760;2022-07-21T00:37:55;95996.03;;;22.74;46.60
63019;BME280;49105;46.046;10.760;2022-07-21T00:40:21;96010.00;;;22.76;46.49
63019;BME280;49105;46.046;10.760;2022-07-21T00:42:46;96006.25;;;22.81;46.18
63019;BME280;49105;46.046;10.760;2022-07-21T00:45:12;96004.13;;;22.74;46.13
63019;BME280;49105;46.046;10.760;2022-07-21T00:47:38;96002.28;;;22.38;47.08
63019;BME280;49105;46.046;10.760;2022-07-21T00:50:08;96000.19;;;22.32;47.22
63019;BME280;49105;46.046;10.760;2022-07-21T00:52:33;95999.94;;;22.37;47.48
63019;BME280;49105;46.046;10.760;2022-07-21T00:54:59;96004.97;;;22.50;46.90
63019;BME280;49105;46.046;10.760;2022-07-21T00:57:25;96011.94;;;22.64;46.49
63019;BME280;49105;46.046;10.760;2022-07-21T00:59:50;96005.31;;;22.49;47.03
63019;BME280;49105;46.046;10.760;2022-07-21T01:02:16;96003.66;;;22.32;47.46
63019;BME280;49105;46.046;10.760;2022-07-21T01:04:41;95999.50;;;22.35;47.31
63019;BME280;49105;46.046;10.760;2022-07-21T01:07:07;95996.78;;;22.47;47.03
63019;BME280;49105;46.046;10.760;2022-07-21T01:09:34;95995.31;;;22.49;47.03
63019;BME280;49105;46.046;10.760;2022-07-21T01:12:00;95995.09;;;22.42;47.21
63019;BME280;49105;46.046;10.760;2022-07-21T01:14:26;95992.88;;;22.20;47.85
63019;BME280;49105;46.046;10.760;2022-07-21T01:16:52;95992.63;;;22.00;48.04
63019;BME280;49105;46.046;10.760;2022-07-21T01:19:18;95996.56;;;22.03;48.12
63019;BME280;49105;46.046;10.760;2022-07-21T01:21:46;95996.78;;;22.10;48.00
63019;BME280;49105;46.046;10.760;2022-07-21T01:24:11;96003.13;;;22.14;47.75
63019;BME280;49105;46.046;10.760;2022-07-21T01:26:48;95996.72;;;22.19;47.65
63019;BME280;49105;46.046;10.760;2022-07-21T01:29:15;96000.72;;;22.25;47.62
63019;BME280;49105;46.046;10.760;2022-07-21T01:31:42;96000.75;;;22.13;47.57
63019;BME280;49105;46.046;10.760;2022-07-21T01:34:08;96001.97;;;22.03;47.62
63019;BME280;49105;46.046;10.760;2022-07-21T01:36:34;96003.53;;;21.92;47.86
63019;BME280;49105;46.046;10.760;2022-07-21T01:39:00;96000.16;;;21.95;47.71
63019;BME280;49105;46.046;10.760;2022-07-21T01:41:44;96004.78;;;22.07;47.35
63019;BME280;49105;46.046;10.760;2022-07-21T01:44:11;96006.91;;;22.13;47.21
63019;BME280;49105;46.046;10.760;2022-07-21T01:46:40;96008.66;;;21.85;48.30
63019;BME280;49105;46.046;10.760;2022-07-21T01:49:06;96008.00;;;21.75;48.55
63019;BME280;49105;46.046;10.760;2022-07-21T01:51:32;96012.97;;;21.86;48.30
63019;BME280;49105;46.046;10.760;2022-07-21T01:53:58;96006.22;;;21.92;48.30
63019;BME280;49105;46.046;10.760;2022-07-21T01:56:25;96003.75;;;21.99;48.24
63019;BME280;49105;46.046;10.760;2022-07-21T01:58:53;96001.59;;;22.04;47.90
63019;BME280;49105;46.046;10.760;2022-07-21T02:01:20;95989.81;;;21.97;48.07
63019;BME280;49105;46.046;10.760;2022-07-21T02:03:47;95989.25;;;21.91;48.37
63019;BME280;49105;46.046;10.760;2022-07-21T02:06:12;96000.28;;;21.98;48.26
63019;BME280;49105;46.046;10.760;2022-07-21T02:08:38;95984.22;;;21.90;48.46
63019;BME280;49105;46.046;10.760;2022-07-21T02:11:04;95985.44;;;21.80;48.77
63019;BME280;49105;46.046;10.760;2022-07-21T02:13:30;95988.56;;;21.70;48.96
63019;BME280;49105;46.046;10.760;2022-07-21T02:15:55;95990.50;;;21.69;49.09
63019;BME280;49105;46.046;10.760;2022-07-21T02:18:21;95992.28;;;21.77;48.72
63019;BME280;49105;46.046;10.760;2022-07-21T02:20:46;95996.78;;;21.86;48.56
63019;BME280;49105;46.046;10.760;2022-07-21T02:23:13;95989.81;;;21.85;48.47
63019;BME280;49105;46.046;10.760;2022-07-21T02:25:39;95991.53;;;21.89;48.23
63019;BME280;49105;46.046;10.760;2022-07-21T02:28:04;95985.66;;;21.99;48.05
63019;BME280;49105;46.046;10.760;2022-07-21T02:30:30;95983.63;;;21.96;47.77
63019;BME280;49105;46.046;10.760;2022-07-21T02:32:55;95985.22;;;21.85;48.39
63019;BME280;49105;46.046;10.760;2022-07-21T02:35:20;95990.66;;;21.40;49.61
63019;BME280;49105;46.046;10.760;2022-07-21T02:37:46;95990.56;;;21.15;50.10
63019;BME280;49105;46.046;10.760;2022-07-21T02:40:11;95990.91;;;21.26;50.22
63019;BME280;49105;46.046;10.760;2022-07-21T02:42:37;95993.16;;;21.24;50.23
63019;BME280;49105;46.046;10.760;2022-07-21T02:45:06;95990.78;;;21.22;50.49
63019;BME280;49105;46.046;10.760;2022-07-21T02:47:32;95986.09;;;21.19;50.37
63019;BME280;49105;46.046;10.760;2022-07-21T02:49:58;95984.75;;;21.25;50.20
63019;BME280;49105;46.046;10.760;2022-07-21T02:52:23;95978.03;;;21.31;49.92
63019;BME280;49105;46.046;10.760;2022-07-21T02:54:49;95981.47;;;21.41;49.73
63019;BME280;49105;46.046;10.760;2022-07-21T02:57:14;95970.56;;;21.37;49.62
63019;BME280;49105;46.046;10.760;2022-07-21T02:59:40;95980.19;;;21.05;50.56
63019;BME280;49105;46.046;10.760;2022-07-21T03:02:05;95972.66;;;20.98;51.02
63019;BME280;49105;46.046;10.760;2022-07-21T03:04:30;95979.06;;;21.06;50.84
63019;BME280;49105;46.046;10.760;2022-07-21T03:06:56;95981.75;;;21.06;50.67
63019;BME280;49105;46.046;10.760;2022-07-21T03:09:21;95977.84;;;21.03;50.86
63019;BME280;49105;46.046;10.760;2022-07-21T03:11:47;95981.88;;;21.10;50.68
63019;BME280;49105;46.046;10.760;2022-07-21T03:14:12;95971.25;;;21.13;50.47
63019;BME280;49105;46.046;10.760;2022-07-21T03:16:37;95971.16;;;21.22;50.27
63019;BME280;49105;46.046;10.760;2022-07-21T03:19:03;95970.50;;;21.25;50.02
63019;BME280;49105;46.046;10.760;2022-07-21T03:21:28;95971.72;;;21.15;50.40
63019;BME280;49105;46.046;10.760;2022-07-21T03:23:54;95977.44;;;20.93;50.88
63019;BME280;49105;46.046;10.760;2022-07-21T03:26:19;95975.44;;;20.69;51.66
63019;BME280;49105;46.046;10.760;2022-07-21T03:28:45;95971.03;;;20.64;51.69
63019;BME280;49105;46.046;10.760;2022-07-21T03:31:10;95972.88;;;20.72;51.48
63019;BME280;49105;46.046;10.760;2022-07-21T03:33:36;95973.59;;;20.81;51.22
63019;BME280;49105;46.046;10.760;2022-07-21T03:36:02;95978.56;;;20.92;51.22
63019;BME280;49105;46.046;10.760;2022-07-21T03:38:27;95982.06;;;20.92;51.04
63019;BME280;49105;46.046;10.760;2022-07-21T03:40:53;95988.47;;;21.00;50.78
63019;BME280;49105;46.046;10.760;2022-07-21T03:43:18;95981.53;;;20.99;50.70
63019;BME280;49105;46.046;10.760;2022-07-21T03:45:44;95975.47;;;21.02;50.58
63019;BME280;49105;46.046;10.760;2022-07-21T03:48:10;95979.03;;;20.94;50.78
63019;BME280;49105;46.046;10.760;2022-07-21T03:50:39;95984.91;;;20.75;51.32
63019;BME280;49105;46.046;10.760;2022-07-21T03:53:06;95995.50;;;20.50;52.07
63019;BME280;49105;46.046;10.760;2022-07-21T03:55:32;95986.22;;;20.39;52.40
63019;BME280;49105;46.046;10.760;2022-07-21T03:58:03;95992.38;;;20.40;52.69
63019;BME280;49105;46.046;10.760;2022-07-21T04:00:30;95990.44;;;20.49;52.17
63019;BME280;49105;46.046;10.760;2022-07-21T04:02:56;95988.75;;;20.65;51.84
63019;BME280;49105;46.046;10.760;2022-07-21T04:05:23;95990.59;;;20.73;51.62
63019;BME280;49105;46.046;10.760;2022-07-21T04:07:49;95986.59;;;20.79;51.24
63019;BME280;49105;46.046;10.760;2022-07-21T04:10:18;95994.47;;;20.85;51.28
63019;BME280;49105;46.046;10.760;2022-07-21T04:12:44;95994.97;;;20.99;51.00
63019;BME280;49105;46.046;10.760;2022-07-21T04:15:11;95994.00;;;21.03;50.66
63019;BME280;49105;46.046;10.760;2022-07-21T04:17:37;95988.06;;;21.10;50.62
63019;BME280;49105;46.046;10.760;2022-07-21T04:20:04;95991.22;;;21.12;50.60
63019;BME280;49105;46.046;10.760;2022-07-21T04:22:30;95987.00;;;21.02;50.73
63019;BME280;49105;46.046;10.760;2022-07-21T04:24:55;95995.25;;;20.64;51.99
63019;BME280;49105;46.046;10.760;2022-07-21T04:27:21;96002.00;;;20.49;52.25
63019;BME280;49105;46.046;10.760;2022-07-21T04:29:46;96001.03;;;20.54;52.20
63019;BME280;49105;46.046;10.760;2022-07-21T04:32:11;96003.31;;;20.64;52.06
63019;BME280;49105;46.046;10.760;2022-07-21T04:34:37;96005.28;;;20.76;51.83
63019;BME280;49105;46.046;10.760;2022-07-21T04:37:02;96002.31;;;20.90;51.66
63019;BME280;49105;46.046;10.760;2022-07-21T04:39:28;95996.06;;;20.98;51.62
63019;BME280;49105;46.046;10.760;2022-07-21T04:41:54;96004.00;;;20.82;51.96
63019;BME280;49105;46.046;10.760;2022-07-21T04:44:19;96003.53;;;20.80;51.94
63019;BME280;49105;46.046;10.760;2022-07-21T04:46:45;96000.97;;;20.84;51.96
63019;BME280;49105;46.046;10.760;2022-07-21T04:49:10;96005.94;;;20.94;51.88
63019;BME280;49105;46.046;10.760;2022-07-21T04:51:36;96008.00;;;21.09;51.64
63019;BME280;49105;46.046;10.760;2022-07-21T04:54:01;96008.81;;;21.10;51.86
63019;BME280;49105;46.046;10.760;2022-07-21T04:56:27;96001.47;;;20.98;52.10
63019;BME280;49105;46.046;10.760;2022-07-21T04:58:52;96006.91;;;21.10;52.02
63019;BME280;49105;46.046;10.760;2022-07-21T05:01:18;96002.28;;;21.31;51.71
63019;BME280;49105;46.046;10.760;2022-07-21T05:03:44;96000.44;;;21.44;51.32
63019;BME280;49105;46.046;10.760;2022-07-21T05:06:09;96006.38;;;21.50;51.24
63019;BME280;49105;46.046;10.760;2022-07-21T05:08:35;96001.69;;;21.59;50.98
63019;BME280;49105;46.046;10.760;2022-07-21T05:11:00;96005.19;;;21.72;50.88
63019;BME280;49105;46.046;10.760;2022-07-21T05:13:26;95998.69;;;21.73;50.94
63019;BME280;49105;46.046;10.760;2022-07-21T05:15:51;95999.81;;;21.84;50.71
63019;BME280;49105;46.046;10.760;2022-07-21T05:18:17;95994.53;;;22.00;50.57
63019;BME280;49105;46.046;10.760;2022-07-21T05:20:42;95994.53;;;22.12;50.29
63019;BME280;49105;46.046;10.760;2022-07-21T05:23:07;95997.59;;;22.23;50.04
63019;BME280;49105;46.046;10.760;2022-07-21T05:25:33;95994.53;;;22.37;49.78
63019;BME280;49105;46.046;10.760;2022-07-21T05:28:01;96001.72;;;22.45;49.94
63019;BME280;49105;46.046;10.760;2022-07-21T05:30:26;95993.41;;;22.50;49.89
63019;BME280;49105;46.046;10.760;2022-07-21T05:32:52;95998.13;;;22.53;49.98
63019;BME280;49105;46.046;10.760;2022-07-21T05:35:17;96000.47;;;22.54;50.12
63019;BME280;49105;46.046;10.760;2022-07-21T05:37:43;95991.81;;;22.61;49.89
63019;BME280;49105;46.046;10.760;2022-07-21T05:40:10;95997.53;;;22.72;49.81
63019;BME280;49105;46.046;10.760;2022-07-21T05:42:36;95997.63;;;22.75;49.80
63019;BME280;49105;46.046;10.760;2022-07-21T05:45:04;95988.16;;;22.82;49.69
63019;BME280;49105;46.046;10.760;2022-07-21T05:47:29;95991.97;;;22.93;49.39
63019;BME280;49105;46.046;10.760;2022-07-21T05:49:56;95988.56;;;22.96;49.43
63019;BME280;49105;46.046;10.760;2022-07-21T05:52:22;95989.56;;;23.03;49.10
63019;BME280;49105;46.046;10.760;2022-07-21T05:54:48;95986.28;;;23.10;49.19
63019;BME280;49105;46.046;10.760;2022-07-21T05:57:13;95995.34;;;23.18;48.98
63019;BME280;49105;46.046;10.760;2022-07-21T05:59:39;95990.59;;;23.27;48.80
63019;BME280;49105;46.046;10.760;2022-07-21T06:02:04;95992.00;;;23.37;48.68
63019;BME280;49105;46.046;10.760;2022-07-21T06:04:30;95988.34;;;23.45;48.66
63019;BME280;49105;46.046;10.760;2022-07-21T06:06:55;95995.34;;;23.46;48.64
63019;BME280;49105;46.046;10.760;2022-07-21T06:09:21;95999.44;;;23.56;48.42
63019;BME280;49105;46.046;10.760;2022-07-21T06:11:46;95996.47;;;23.61;48.38
63019;BME280;49105;46.046;10.760;2022-07-21T06:14:12;95993.38;;;23.74;48.09
63019;BME280;49105;46.046;10.760;2022-07-21T06:16:37;95997.75;;;23.79;47.96
63019;BME280;49105;46.046;10.760;2022-07-21T06:19:04;95999.13;;;23.73;47.99
63019;BME280;49105;46.046;10.760;2022-07-21T06:21:31;95996.78;;;23.71;48.14
63019;BME280;49105;46.046;10.760;2022-07-21T06:23:57;95989.97;;;23.77;47.84
63019;BME280;49105;46.046;10.760;2022-07-21T06:26:23;95992.16;;;23.88;47.80
63019;BME280;49105;46.046;10.760;2022-07-21T06:28:49;95992.94;;;24.04;47.44
63019;BME280;49105;46.046;10.760;2022-07-21T06:31:14;95988.72;;;24.07;47.42
63019;BME280;49105;46.046;10.760;2022-07-21T06:33:39;95991.97;;;24.12;47.38
63019;BME280;49105;46.046;10.760;2022-07-21T06:36:06;95987.56;;;24.23;47.08
63019;BME280;49105;46.046;10.760;2022-07-21T06:38:32;95987.94;;;24.38;46.79
63019;BME280;49105;46.046;10.760;2022-07-21T06:40:57;95983.97;;;24.51;46.67
63019;BME280;49105;46.046;10.760;2022-07-21T06:43:22;95974.94;;;24.63;46.34
63019;BME280;49105;46.046;10.760;2022-07-21T06:45:48;95966.63;;;24.71;46.18
63019;BME280;49105;46.046;10.760;2022-07-21T06:48:14;95970.34;;;24.83;46.12
63019;BME280;49105;46.046;10.760;2022-07-21T06:50:39;95970.69;;;24.81;46.00
63019;BME280;49105;46.046;10.760;2022-07-21T06:53:05;95968.78;;;24.82;46.02
63019;BME280;49105;46.046;10.760;2022-07-21T06:55:32;95973.81;;;24.83;46.10
63019;BME280;49105;46.046;10.760;2022-07-21T06:57:57;95971.25;;;24.90;45.77
63019;BME280;49105;46.046;10.760;2022-07-21T07:00:23;95970.34;;;25.02;45.63
63019;BME280;49105;46.046;10.760;2022-07-21T07:02:49;95975.25;;;25.16;45.35
63019;BME280;49105;46.046;10.760;2022-07-21T07:05:14;95971.47;;;25.20;45.22
63019;BME280;49105;46.046;10.760;2022-07-21T07:07:40;95965.81;;;25.29;44.81
63019;BME280;49105;46.046;10.760;2022-07-21T07:10:05;95959.47;;;25.41;44.68
63019;BME280;49105;46.046;10.760;2022-07-21T07:12:31;95960.78;;;25.50;44.35
63019;BME280;49105;46.046;10.760;2022-07-21T07:14:57;95961.69;;;25.58;44.31
63019;BME280;49105;46.046;10.760;2022-07-21T07:17:22;95957.34;;;25.54;44.30
63019;BME280;49105;46.046;10.760;2022-07-21T07:19:48;95960.84;;;25.54;44.26
63019;BME280;49105;46.046;10.760;2022-07-21T07:22:13;95954.41;;;25.62;44.16
63019;BME280;49105;46.046;10.760;2022-07-21T07:24:39;95953.31;;;25.67;44.32
63019;BME280;49105;46.046;10.760;2022-07-21T07:27:05;95945.41;;;25.78;43.77
63019;BME280;49105;46.046;10.760;2022-07-21T07:29:30;95943.66;;;25.89;43.65
63019;BME280;49105;46.046;10.760;2022-07-21T07:31:57;95946.94;;;26.02;43.50
63019;BME280;49105;46.046;10.760;2022-07-21T07:34:22;95933.94;;;26.14;43.28
63019;BME280;49105;46.046;10.760;2022-07-21T07:36:48;95937.13;;;26.20;42.97
63019;BME280;49105;46.046;10.760;2022-07-21T07:39:13;95942.22;;;26.25;43.07
63019;BME280;49105;46.046;10.760;2022-07-21T07:41:41;95936.63;;;26.41;42.73
63019;BME280;49105;46.046;10.760;2022-07-21T07:44:07;95937.19;;;26.50;42.42
63019;BME280;49105;46.046;10.760;2022-07-21T07:46:33;95932.63;;;26.58;42.38
63019;BME280;49105;46.046;10.760;2022-07-21T07:48:58;95925.28;;;26.62;42.14
63019;BME280;49105;46.046;10.760;2022-07-21T07:51:24;95932.34;;;26.66;41.95
63019;BME280;49105;46.046;10.760;2022-07-21T07:53:50;95922.72;;;26.72;41.73
63019;BME280;49105;46.046;10.760;2022-07-21T07:56:15;95922.38;;;26.78;40.82
63019;BME280;49105;46.046;10.760;2022-07-21T07:58:40;95907.28;;;26.80;40.67
63019;BME280;49105;46.046;10.760;2022-07-21T08:01:06;95906.97;;;26.85;40.15
63019;BME280;49105;46.046;10.760;2022-07-21T08:03:31;95908.22;;;26.91;40.09
63019;BME280;49105;46.046;10.760;2022-07-21T08:05:57;95904.44;;;27.03;40.21
63019;BME280;49105;46.046;10.760;2022-07-21T08:08:29;95902.94;;;27.09;39.86
63019;BME280;49105;46.046;10.760;2022-07-21T08:10:55;95906.94;;;27.19;40.03
63019;BME280;49105;46.046;10.760;2022-07-21T08:13:21;95889.56;;;27.27;39.95
63019;BME280;49105;46.046;10.760;2022-07-21T08:15:48;95895.84;;;27.35;39.74
63019;BME280;49105;46.046;10.760;2022-07-21T08:18:15;95894.38;;;27.44;39.67
63019;BME280;49105;46.046;10.760;2022-07-21T08:20:41;95887.09;;;27.56;39.52
63019;BME280;49105;46.046;10.760;2022-07-21T08:23:07;95884.81;;;27.61;39.42
63019;BME280;49105;46.046;10.760;2022-07-21T08:25:33;95884.09;;;27.71;39.37
63019;BME280;49105;46.046;10.760;2022-07-21T08:27:59;95886.56;;;27.84;39.04
63019;BME280;49105;46.046;10.760;2022-07-21T08:30:24;95886.63;;;27.91;38.92
63019;BME280;49105;46.046;10.760;2022-07-21T08:32:50;95875.38;;;27.96;38.87
63019;BME280;49105;46.046;10.760;2022-07-21T08:35:15;95877.34;;;27.99;38.73
63019;BME280;49105;46.046;10.760;2022-07-21T08:37:41;95869.59;;;28.05;38.53
63019;BME280;49105;46.046;10.760;2022-07-21T08:40:09;95870.41;;;28.12;38.62
63019;BME280;49105;46.046;10.760;2022-07-21T08:42:36;95868.13;;;28.22;38.33
63019;BME280;49105;46.046;10.760;2022-07-21T08:45:03;95865.06;;;28.30;38.27
63019;BME280;49105;46.046;10.760;2022-07-21T08:47:28;95856.97;;;28.37;37.96
63019;BME280;49105;46.046;10.760;2022-07-21T08:49:55;95853.50;;;28.44;37.97
63019;BME280;49105;46.046;10.760;2022-07-21T08:52:20;95848.47;;;28.53;37.95
63019;BME280;49105;46.046;10.760;2022-07-21T08:54:46;95850.84;;;28.65;37.97
63019;BME280;49105;46.046;10.760;2022-07-21T08:57:11;95852.81;;;28.72;37.64
63019;BME280;49105;46.046;10.760;2022-07-21T08:59:37;95846.59;;;28.75;37.58
63019;BME280;49105;46.046;10.760;2022-07-21T09:02:03;95852.44;;;28.81;37.59
63019;BME280;49105;46.046;10.760;2022-07-21T09:04:33;95844.69;;;28.93;37.36
63019;BME280;49105;46.046;10.760;2022-07-21T09:07:00;95843.56;;;29.02;36.63
63019;BME280;49105;46.046;10.760;2022-07-21T09:09:28;95845.16;;;29.13;36.80
63019;BME280;49105;46.046;10.760;2022-07-21T09:11:54;95838.16;;;29.27;36.48
63019;BME280;49105;46.046;10.760;2022-07-21T09:14:25;95843.59;;;29.37;36.07
63019;BME280;49105;46.046;10.760;2022-07-21T09:16:53;95841.25;;;29.43;35.59
63019;BME280;49105;46.046;10.760;2022-07-21T09:21:57;95829.19;;;29.51;34.79
63019;BME280;49105;46.046;10.760;2022-07-21T09:24:28;95825.69;;;29.61;35.04
63019;BME280;49105;46.046;10.760;2022-07-21T09:29:26;95818.66;;;29.78;34.28
63019;BME280;49105;46.046;10.760;2022-07-21T09:31:51;95827.22;;;29.77;32.88
63019;BME280;49105;46.046;10.760;2022-07-21T09:34:17;95819.41;;;29.82;33.04
63019;BME280;49105;46.046;10.760;2022-07-21T09:36:57;95815.50;;;29.94;33.23
63019;BME280;49105;46.046;10.760;2022-07-21T09:44:51;95803.75;;;30.19;32.79
63019;BME280;49105;46.046;10.760;2022-07-21T09:47:20;95803.34;;;30.24;32.23
63019;BME280;49105;46.046;10.760;2022-07-21T09:49:46;95803.34;;;30.24;32.09
63019;BME280;49105;46.046;10.760;2022-07-21T09:52:23;95799.81;;;30.30;32.44
63019;BME280;49105;46.046;10.760;2022-07-21T09:54:50;95795.47;;;30.36;32.15
63019;BME280;49105;46.046;10.760;2022-07-21T09:57:16;95786.47;;;30.47;32.78
63019;BME280;49105;46.046;10.760;2022-07-21T09:59:46;95789.53;;;30.59;32.28
63019;BME280;49105;46.046;10.760;2022-07-21T10:04:48;95783.25;;;30.66;32.49
63019;BME280;49105;46.046;10.760;2022-07-21T10:07:15;95785.94;;;30.77;32.27
63019;BME280;49105;46.046;10.760;2022-07-21T10:09:42;95781.63;;;30.83;32.38
63019;BME280;49105;46.046;10.760;2022-07-21T10:12:08;95780.41;;;30.87;32.03
63019;BME280;49105;46.046;10.760;2022-07-21T10:14:35;95772.97;;;30.92;32.01
63019;BME280;49105;46.046;10.760;2022-07-21T10:17:00;95769.03;;;30.96;31.87
63019;BME280;49105;46.046;10.760;2022-07-21T10:19:32;95764.66;;;31.06;32.13
63019;BME280;49105;46.046;10.760;2022-07-21T10:24:30;95769.59;;;31.22;31.56
63019;BME280;49105;46.046;10.760;2022-07-21T10:27:10;95771.16;;;31.23;31.08
63019;BME280;49105;46.046;10.760;2022-07-21T10:29:58;95763.34;;;31.21;31.15
63019;BME280;49105;46.046;10.760;2022-07-21T10:34:56;95765.25;;;31.28;31.19
63019;BME280;49105;46.046;10.760;2022-07-21T10:45:34;95763.94;;;31.47;30.84
63019;BME280;49105;46.046;10.760;2022-07-21T10:48:02;95756.94;;;31.42;30.65
63019;BME280;49105;46.046;10.760;2022-07-21T10:50:38;95748.75;;;31.42;30.81
63019;BME280;49105;46.046;10.760;2022-07-21T10:53:17;95754.50;;;31.51;30.95
63019;BME280;49105;46.046;10.760;2022-07-21T10:55:47;95749.78;;;31.55;30.68
63019;BME280;49105;46.046;10.760;2022-07-21T10:58:24;95745.78;;;31.63;30.86
63019;BME280;49105;46.046;10.760;2022-07-21T11:00:57;95736.28;;;31.75;30.63
63019;BME280;49105;46.046;10.760;2022-07-21T11:11:26;95734.28;;;31.79;30.64
63019;BME280;49105;46.046;10.760;2022-07-21T11:25:04;95714.03;;;32.07;29.81
63019;BME280;49105;46.046;10.760;2022-07-21T11:27:33;95712.50;;;32.06;29.55
63019;BME280;49105;46.046;10.760;2022-07-21T11:30:01;95716.31;;;32.12;29.80
63019;BME280;49105;46.046;10.760;2022-07-21T11:32:28;95717.78;;;32.21;29.61
63019;BME280;49105;46.046;10.760;2022-07-21T11:34:56;95698.50;;;32.28;29.90
63019;BME280;49105;46.046;10.760;2022-07-21T11:37:37;95692.50;;;32.40;29.88
63019;BME280;49105;46.046;10.760;2022-07-21T11:40:05;95697.88;;;32.47;29.86
63019;BME280;49105;46.046;10.760;2022-07-21T11:42:31;95689.25;;;32.49;29.84
63019;BME280;49105;46.046;10.760;2022-07-21T11:44:57;95688.09;;;32.46;29.48
63019;BME280;49105;46.046;10.760;2022-07-21T11:47:23;95686.03;;;32.54;29.42
63019;BME280;49105;46.046;10.760;2022-07-21T11:49:53;95686.69;;;32.61;29.36
63019;BME280;49105;46.046;10.760;2022-07-21T11:52:25;95681.13;;;32.69;29.13
63019;BME280;49105;46.046;10.760;2022-07-21T11:54:52;95678.53;;;32.58;28.66
63019;BME280;49105;46.046;10.760;2022-07-21T11:57:21;95678.91;;;32.60;28.65
63019;BME280;49105;46.046;10.760;2022-07-21T11:59:49;95671.69;;;32.70;28.85
63019;BME280;49105;46.046;10.760;2022-07-21T12:02:17;95677.28;;;32.63;28.59
63019;BME280;49105;46.046;10.760;2022-07-21T12:04:45;95685.06;;;32.68;28.21
63019;BME280;49105;46.046;10.760;2022-07-21T12:07:13;95685.13;;;32.64;28.00
63019;BME280;49105;46.046;10.760;2022-07-21T12:09:42;95672.72;;;32.56;28.29
63019;BME280;49105;46.046;10.760;2022-07-21T12:12:08;95677.28;;;32.63;28.67
63019;BME280;49105;46.046;10.760;2022-07-21T12:14:49;95675.69;;;32.65;28.07
63019;BME280;49105;46.046;10.760;2022-07-21T12:17:35;95670.94;;;32.69;28.31
63019;BME280;49105;46.046;10.760;2022-07-21T12:20:02;95666.84;;;32.81;28.40
63019;BME280;49105;46.046;10.760;2022-07-21T12:25:03;95662.22;;;33.01;28.13
63019;BME280;49105;46.046;10.760;2022-07-21T12:27:29;95658.09;;;33.13;27.81
63019;BME280;49105;46.046;10.760;2022-07-21T12:29:54;95658.31;;;33.22;27.84
63019;BME280;49105;46.046;10.760;2022-07-21T12:35:04;95659.78;;;33.27;27.63
63019;BME280;49105;46.046;10.760;2022-07-21T12:37:55;95649.44;;;33.15;27.52
63019;BME280;49105;46.046;10.760;2022-07-21T12:40:21;95653.16;;;33.04;27.61
63019;BME280;49105;46.046;10.760;2022-07-21T12:42:47;95655.53;;;33.02;27.74
63019;BME280;49105;46.046;10.760;2022-07-21T12:45:20;95646.34;;;32.89;27.67
63019;BME280;49105;46.046;10.760;2022-07-21T12:48:05;95649.56;;;32.84;27.94
63019;BME280;49105;46.046;10.760;2022-07-21T12:50:30;95645.38;;;32.76;28.04
63019;BME280;49105;46.046;10.760;2022-07-21T12:52:56;95643.47;;;32.73;28.02
63019;BME280;49105;46.046;10.760;2022-07-21T12:55:21;95643.81;;;32.75;27.90
63019;BME280;49105;46.046;10.760;2022-07-21T12:57:47;95641.78;;;32.79;27.80
63019;BME280;49105;46.046;10.760;2022-07-21T13:00:12;95638.59;;;32.84;27.66
63019;BME280;49105;46.046;10.760;2022-07-21T13:03:04;95640.09;;;32.89;27.48
63019;BME280;49105;46.046;10.760;2022-07-21T13:05:30;95644.41;;;32.86;27.62
63019;BME280;49105;46.046;10.760;2022-07-21T13:07:55;95636.69;;;32.81;27.63
63019;BME280;49105;46.046;10.760;2022-07-21T13:10:21;95635.59;;;32.75;27.40
63019;BME280;49105;46.046;10.760;2022-07-21T13:12:47;95627.44;;;32.71;27.70
63019;BME280;49105;46.046;10.760;2022-07-21T13:15:13;95631.91;;;32.61;27.63
63019;BME280;49105;46.046;10.760;2022-07-21T13:17:38;95625.00;;;32.53;27.83
63019;BME280;49105;46.046;10.760;2022-07-21T13:20:04;95628.19;;;32.48;27.91
63019;BME280;49105;46.046;10.760;2022-07-21T13:22:30;95632.09;;;32.51;27.64
63019;BME280;49105;46.046;10.760;2022-07-21T13:24:56;95630.53;;;32.50;28.03
63019;BME280;49105;46.046;10.760;2022-07-21T13:27:21;95631.91;;;32.61;27.18
63019;BME280;49105;46.046;10.760;2022-07-21T13:29:47;95624.28;;;32.73;27.20
63019;BME280;49105;46.046;10.760;2022-07-21T13:32:12;95624.28;;;32.73;27.28
63019;BME280;49105;46.046;10.760;2022-07-21T13:34:38;95614.94;;;32.70;27.36
63019;BME280;49105;46.046;10.760;2022-07-21T13:37:03;95625.59;;;32.65;27.20
63019;BME280;49105;46.046;10.760;2022-07-21T13:39:29;95610.69;;;32.66;27.33